createdAt,value
2018-12-19T00:00:57.957Z,0.00
2018-12-19T00:01:57.946Z,0.00
2018-12-19T00:02:57.933Z,0.00
2018-12-19T00:03:57.925Z,0.00
2018-12-19T00:04:57.925Z,0.00
2018-12-19T00:05:57.900Z,0.00
2018-12-19T00:06:57.891Z,0.00
2018-12-19T00:07:57.884Z,0.00
2018-12-19T00:09:03.164Z,0.00
2018-12-19T00:09:57.858Z,0.00
2018-12-19T00:10:57.861Z,0.00
2018-12-19T00:11:57.838Z,0.00
2018-12-19T00:12:57.826Z,0.00
2018-12-19T00:13:57.815Z,0.00
2018-12-19T00:14:57.805Z,0.00
2018-12-19T00:15:57.797Z,0.00
2018-12-19T00:16:57.786Z,0.00
2018-12-19T00:17:57.773Z,0.00
2018-12-19T00:18:57.761Z,0.00
2018-12-19T00:19:57.751Z,0.00
2018-12-19T00:20:57.741Z,0.00
2018-12-19T00:21:57.728Z,0.00
2018-12-19T00:22:57.718Z,0.00
2018-12-19T00:23:57.707Z,0.00
2018-12-19T00:24:57.697Z,0.00
2018-12-19T00:25:57.686Z,0.00
2018-12-19T00:26:57.675Z,0.00
2018-12-19T00:27:58.333Z,0.00
2018-12-19T00:28:57.655Z,0.00
2018-12-19T00:29:57.641Z,0.00
2018-12-19T00:30:57.631Z,0.00
2018-12-19T00:31:57.621Z,0.00
2018-12-19T00:32:57.615Z,0.00
2018-12-19T00:33:57.599Z,0.00
2018-12-19T00:34:57.588Z,0.00
2018-12-19T00:35:57.577Z,0.00
2018-12-19T00:36:57.565Z,0.00
2018-12-19T00:37:57.555Z,0.00
2018-12-19T00:38:57.540Z,0.00
2018-12-19T00:39:57.550Z,0.00
2018-12-19T00:40:57.522Z,0.00
2018-12-19T00:41:57.508Z,0.00
2018-12-19T00:42:57.500Z,0.00
2018-12-19T00:43:57.490Z,0.00
2018-12-19T00:44:57.479Z,0.00
2018-12-19T00:45:57.468Z,0.00
2018-12-19T00:46:57.456Z,0.00
2018-12-19T00:47:57.446Z,0.00
2018-12-19T00:48:57.429Z,0.00
2018-12-19T00:49:57.423Z,0.00
2018-12-19T00:50:58.338Z,0.00
2018-12-19T00:51:57.401Z,0.00
2018-12-19T00:52:57.390Z,0.00
2018-12-19T00:53:57.386Z,0.00
2018-12-19T00:54:57.368Z,0.00
2018-12-19T00:55:57.359Z,0.00
2018-12-19T00:56:57.345Z,0.00
2018-12-19T00:57:57.336Z,0.00
2018-12-19T00:58:57.326Z,0.00
2018-12-19T00:59:57.316Z,0.00
2018-12-19T01:00:57.303Z,0.00
2018-12-19T01:01:57.292Z,0.00
2018-12-19T01:02:57.282Z,0.00
2018-12-19T01:03:57.271Z,0.00
2018-12-19T01:04:57.260Z,0.00
2018-12-19T01:05:57.249Z,0.00
2018-12-19T01:06:57.241Z,0.00
2018-12-19T01:07:57.228Z,0.00
2018-12-19T01:08:57.215Z,0.00
2018-12-19T01:09:57.205Z,0.00
2018-12-19T01:10:57.195Z,0.00
2018-12-19T01:11:57.182Z,0.00
2018-12-19T01:12:57.173Z,0.00
2018-12-19T01:13:57.161Z,0.00
2018-12-19T01:14:57.150Z,0.00
2018-12-19T01:15:57.140Z,0.00
2018-12-19T01:16:57.131Z,0.00
2018-12-19T01:17:57.119Z,0.00
2018-12-19T01:18:57.107Z,0.00
2018-12-19T01:19:57.097Z,0.00
2018-12-19T01:20:57.084Z,0.00
2018-12-19T01:21:57.074Z,0.00
2018-12-19T01:22:57.063Z,0.00
2018-12-19T01:23:57.052Z,0.00
2018-12-19T01:24:57.042Z,0.00
2018-12-19T01:25:57.030Z,0.00
2018-12-19T01:26:57.019Z,0.00
2018-12-19T01:27:57.009Z,0.00
2018-12-19T01:28:56.998Z,0.00
2018-12-19T01:29:56.985Z,0.00
2018-12-19T01:30:56.976Z,0.00
2018-12-19T01:31:56.965Z,0.00
2018-12-19T01:32:56.955Z,0.00
2018-12-19T01:33:56.942Z,0.00
2018-12-19T01:34:56.931Z,0.00
2018-12-19T01:35:56.921Z,0.00
2018-12-19T01:36:56.910Z,0.00
2018-12-19T01:37:56.900Z,0.00
2018-12-19T01:38:56.889Z,0.00
2018-12-19T01:39:56.876Z,0.00
2018-12-19T01:40:56.866Z,0.00
2018-12-19T01:41:56.855Z,0.00
2018-12-19T01:42:56.839Z,0.00
2018-12-19T01:43:56.833Z,0.00
2018-12-19T01:44:56.823Z,0.00
2018-12-19T01:45:56.811Z,0.00
2018-12-19T01:46:56.802Z,0.00
2018-12-19T01:47:56.790Z,0.00
2018-12-19T01:48:56.777Z,0.00
2018-12-19T01:49:56.763Z,0.00
2018-12-19T01:50:56.754Z,0.00
2018-12-19T01:51:56.743Z,0.00
2018-12-19T01:52:56.732Z,0.00
2018-12-19T01:53:56.721Z,0.00
2018-12-19T01:54:56.708Z,0.00
2018-12-19T01:55:56.699Z,0.00
2018-12-19T01:56:56.690Z,0.00
2018-12-19T01:57:56.675Z,0.00
2018-12-19T01:58:56.667Z,0.00
2018-12-19T01:59:56.655Z,0.00
2018-12-19T02:00:56.642Z,0.00
2018-12-19T02:01:56.632Z,0.00
2018-12-19T02:02:56.620Z,0.00
2018-12-19T02:03:56.610Z,0.00
2018-12-19T02:04:56.599Z,0.00
2018-12-19T02:05:56.587Z,0.00
2018-12-19T02:06:56.577Z,0.00
2018-12-19T02:07:56.566Z,0.00
2018-12-19T02:08:56.555Z,0.00
2018-12-19T02:09:56.543Z,0.00
2018-12-19T02:10:56.533Z,0.00
2018-12-19T02:11:56.521Z,0.00
2018-12-19T02:12:56.511Z,0.00
2018-12-19T02:13:56.499Z,0.00
2018-12-19T02:14:56.488Z,0.00
2018-12-19T02:15:56.479Z,0.00
2018-12-19T02:16:56.467Z,0.00
2018-12-19T02:17:56.455Z,0.00
2018-12-19T02:18:56.446Z,0.00
2018-12-19T02:19:56.433Z,0.00
2018-12-19T02:20:56.422Z,0.00
2018-12-19T02:21:56.410Z,0.00
2018-12-19T02:22:56.400Z,0.00
2018-12-19T02:23:56.389Z,0.00
2018-12-19T02:24:56.379Z,0.00
2018-12-19T02:25:56.365Z,0.00
2018-12-19T02:26:56.357Z,0.00
2018-12-19T02:27:56.347Z,0.00
2018-12-19T02:28:56.333Z,0.00
2018-12-19T02:29:56.322Z,0.00
2018-12-19T02:30:56.310Z,0.00
2018-12-19T02:31:56.298Z,0.00
2018-12-19T02:32:56.289Z,0.00
2018-12-19T02:33:56.276Z,0.00
2018-12-19T02:34:56.267Z,0.00
2018-12-19T02:35:56.255Z,0.00
2018-12-19T02:36:56.245Z,0.00
2018-12-19T02:37:56.236Z,0.00
2018-12-19T02:38:56.222Z,0.00
2018-12-19T02:39:56.214Z,0.00
2018-12-19T02:40:56.198Z,0.00
2018-12-19T02:41:56.187Z,0.00
2018-12-19T02:42:56.178Z,0.00
2018-12-19T02:43:56.165Z,0.00
2018-12-19T02:44:56.164Z,0.00
2018-12-19T02:45:56.148Z,0.00
2018-12-19T02:46:56.133Z,0.00
2018-12-19T02:47:56.123Z,0.00
2018-12-19T02:48:56.111Z,0.00
2018-12-19T02:49:56.097Z,0.00
2018-12-19T02:50:56.116Z,0.00
2018-12-19T02:51:56.077Z,0.00
2018-12-19T02:52:56.071Z,0.00
2018-12-19T02:53:56.054Z,0.00
2018-12-19T02:54:56.044Z,0.00
2018-12-19T02:55:56.035Z,0.00
2018-12-19T02:56:56.031Z,0.00
2018-12-19T02:57:56.010Z,0.00
2018-12-19T02:58:55.999Z,0.00
2018-12-19T02:59:55.985Z,0.00
2018-12-19T03:00:55.978Z,0.00
2018-12-19T03:01:55.971Z,0.00
2018-12-19T03:02:55.955Z,0.00
2018-12-19T03:03:55.942Z,0.00
2018-12-19T03:04:55.937Z,0.00
2018-12-19T03:05:55.920Z,0.00
2018-12-19T03:06:55.910Z,0.00
2018-12-19T03:07:55.897Z,0.00
2018-12-19T03:08:55.889Z,0.00
2018-12-19T03:09:55.876Z,0.00
2018-12-19T03:10:55.866Z,0.00
2018-12-19T03:11:55.854Z,0.00
2018-12-19T03:12:55.851Z,0.00
2018-12-19T03:13:55.834Z,0.00
2018-12-19T03:14:55.821Z,0.00
2018-12-19T03:15:55.812Z,0.00
2018-12-19T03:16:55.799Z,0.00
2018-12-19T03:17:55.787Z,0.00
2018-12-19T03:18:55.777Z,0.00
2018-12-19T03:19:55.765Z,0.00
2018-12-19T03:20:55.755Z,0.00
2018-12-19T03:21:55.741Z,0.00
2018-12-19T03:22:55.735Z,0.00
2018-12-19T03:23:55.720Z,0.00
2018-12-19T03:24:55.715Z,0.00
2018-12-19T03:25:55.697Z,0.00
2018-12-19T03:26:55.698Z,0.00
2018-12-19T03:27:55.678Z,0.00
2018-12-19T03:28:55.666Z,0.00
2018-12-19T03:29:55.652Z,0.00
2018-12-19T03:30:55.641Z,0.00
2018-12-19T03:31:55.631Z,0.00
2018-12-19T03:32:55.621Z,0.00
2018-12-19T03:33:55.609Z,0.00
2018-12-19T03:34:55.595Z,0.00
2018-12-19T03:35:55.587Z,0.00
2018-12-19T03:36:55.576Z,0.00
2018-12-19T03:37:55.562Z,0.00
2018-12-19T03:38:55.551Z,0.00
2018-12-19T03:39:55.546Z,0.00
2018-12-19T03:40:55.531Z,0.00
2018-12-19T03:41:55.518Z,0.00
2018-12-19T03:42:55.511Z,0.00
2018-12-19T03:43:55.495Z,0.00
2018-12-19T03:44:55.484Z,0.00
2018-12-19T03:45:55.470Z,0.00
2018-12-19T03:46:55.462Z,0.00
2018-12-19T03:47:55.450Z,0.00
2018-12-19T03:48:55.443Z,0.00
2018-12-19T03:49:55.426Z,0.00
2018-12-19T03:50:55.418Z,0.00
2018-12-19T03:51:55.410Z,0.00
2018-12-19T03:52:55.394Z,0.00
2018-12-19T03:53:55.382Z,0.00
2018-12-19T03:54:55.375Z,0.00
2018-12-19T03:55:55.361Z,0.00
2018-12-19T03:56:55.350Z,0.00
2018-12-19T03:57:55.342Z,0.00
2018-12-19T03:58:55.328Z,0.00
2018-12-19T03:59:55.320Z,0.00
2018-12-19T04:00:55.307Z,0.00
2018-12-19T04:01:55.294Z,0.00
2018-12-19T04:02:55.281Z,0.00
2018-12-19T04:03:55.277Z,0.00
2018-12-19T04:04:55.262Z,0.00
2018-12-19T04:05:55.249Z,0.00
2018-12-19T04:06:55.246Z,0.00
2018-12-19T04:07:55.229Z,0.00
2018-12-19T04:08:55.216Z,0.00
2018-12-19T04:09:58.056Z,0.00
2018-12-19T04:10:55.195Z,0.00
2018-12-19T04:11:55.180Z,0.00
2018-12-19T04:12:55.172Z,0.00
2018-12-19T04:13:55.160Z,0.00
2018-12-19T04:14:55.148Z,0.00
2018-12-19T04:15:55.138Z,0.00
2018-12-19T04:16:55.127Z,0.00
2018-12-19T04:17:55.114Z,0.00
2018-12-19T04:18:55.104Z,0.00
2018-12-19T04:19:55.090Z,0.00
2018-12-19T04:20:55.083Z,0.00
2018-12-19T04:21:55.071Z,0.00
2018-12-19T04:22:55.061Z,0.00
2018-12-19T04:23:55.050Z,0.00
2018-12-19T04:24:55.037Z,0.00
2018-12-19T04:25:55.024Z,0.00
2018-12-19T04:26:55.014Z,0.00
2018-12-19T04:27:55.001Z,0.00
2018-12-19T04:28:54.991Z,0.00
2018-12-19T04:29:54.979Z,0.00
2018-12-19T04:30:54.968Z,0.00
2018-12-19T04:31:54.954Z,0.00
2018-12-19T04:32:54.951Z,0.00
2018-12-19T04:33:54.934Z,0.00
2018-12-19T04:34:54.923Z,0.00
2018-12-19T04:35:54.911Z,0.00
2018-12-19T04:36:54.901Z,0.00
2018-12-19T04:37:54.888Z,0.00
2018-12-19T04:38:54.873Z,0.00
2018-12-19T04:39:54.869Z,0.00
2018-12-19T04:40:54.854Z,0.00
2018-12-19T04:41:54.843Z,0.00
2018-12-19T04:42:54.836Z,0.00
2018-12-19T04:43:54.821Z,0.00
2018-12-19T04:44:54.818Z,0.00
2018-12-19T04:45:54.802Z,0.00
2018-12-19T04:46:54.788Z,0.00
2018-12-19T04:47:54.774Z,0.00
2018-12-19T04:48:54.765Z,0.00
2018-12-19T04:49:54.750Z,0.00
2018-12-19T04:50:54.742Z,0.00
2018-12-19T04:51:54.731Z,0.00
2018-12-19T04:52:54.719Z,0.00
2018-12-19T04:53:54.708Z,0.00
2018-12-19T04:54:54.694Z,0.00
2018-12-19T04:55:54.683Z,0.00
2018-12-19T04:56:54.674Z,0.00
2018-12-19T04:57:54.663Z,0.00
2018-12-19T04:58:54.651Z,0.00
2018-12-19T04:59:54.640Z,0.00
2018-12-19T05:00:54.629Z,0.00
2018-12-19T05:01:54.621Z,0.00
2018-12-19T05:02:54.606Z,0.00
2018-12-19T05:03:54.594Z,0.00
2018-12-19T05:04:54.586Z,0.00
2018-12-19T05:05:54.569Z,0.00
2018-12-19T05:06:54.560Z,0.00
2018-12-19T05:07:54.547Z,0.00
2018-12-19T05:08:54.537Z,0.00
2018-12-19T05:09:54.529Z,0.00
2018-12-19T05:10:54.515Z,0.00
2018-12-19T05:11:54.504Z,0.00
2018-12-19T05:12:54.511Z,0.00
2018-12-19T05:13:54.479Z,0.00
2018-12-19T05:14:54.466Z,0.00
2018-12-19T05:15:54.459Z,0.00
2018-12-19T05:16:54.447Z,0.00
2018-12-19T05:17:54.433Z,0.00
2018-12-19T05:18:54.421Z,0.00
2018-12-19T05:19:54.414Z,0.00
2018-12-19T05:20:54.405Z,0.00
2018-12-19T05:21:54.391Z,0.00
2018-12-19T05:22:54.377Z,0.00
2018-12-19T05:23:54.375Z,0.00
2018-12-19T05:24:54.357Z,0.00
2018-12-19T05:25:54.345Z,0.00
2018-12-19T05:26:54.332Z,0.00
2018-12-19T05:27:54.322Z,0.00
2018-12-19T05:28:54.310Z,0.00
2018-12-19T05:29:54.300Z,0.00
2018-12-19T05:30:54.287Z,0.00
2018-12-19T05:31:54.278Z,0.00
2018-12-19T05:32:54.265Z,0.00
2018-12-19T05:33:54.255Z,0.00
2018-12-19T05:34:54.243Z,0.00
2018-12-19T05:35:54.232Z,0.00
2018-12-19T05:36:54.221Z,0.00
2018-12-19T05:37:54.210Z,0.00
2018-12-19T05:38:54.198Z,0.00
2018-12-19T05:39:54.187Z,0.00
2018-12-19T05:40:54.177Z,0.00
2018-12-19T05:41:54.164Z,0.00
2018-12-19T05:42:54.156Z,0.00
2018-12-19T05:43:54.141Z,0.00
2018-12-19T05:44:54.132Z,0.00
2018-12-19T05:45:54.118Z,0.00
2018-12-19T05:46:54.107Z,0.00
2018-12-19T05:47:54.103Z,0.00
2018-12-19T05:48:54.086Z,0.00
2018-12-19T05:49:54.075Z,0.00
2018-12-19T05:50:54.063Z,0.00
2018-12-19T05:51:54.053Z,0.00
2018-12-19T05:52:54.041Z,0.00
2018-12-19T05:53:54.030Z,0.00
2018-12-19T05:54:54.019Z,0.00
2018-12-19T05:55:54.007Z,0.00
2018-12-19T05:56:53.999Z,0.00
2018-12-19T05:57:53.986Z,0.00
2018-12-19T05:58:53.975Z,0.00
2018-12-19T05:59:53.964Z,0.00
2018-12-19T06:00:53.953Z,0.00
2018-12-19T06:01:53.941Z,0.00
2018-12-19T06:02:53.926Z,0.00
2018-12-19T06:03:53.919Z,0.00
2018-12-19T06:04:53.909Z,0.00
2018-12-19T06:05:53.894Z,0.00
2018-12-19T06:06:53.885Z,0.00
2018-12-19T06:07:53.873Z,0.00
2018-12-19T06:08:53.862Z,0.00
2018-12-19T06:09:53.849Z,0.00
2018-12-19T06:10:53.840Z,0.00
2018-12-19T06:11:53.840Z,0.00
2018-12-19T06:12:53.821Z,0.00
2018-12-19T06:13:53.806Z,0.00
2018-12-19T06:14:53.795Z,0.00
2018-12-19T06:15:53.786Z,0.00
2018-12-19T06:16:53.775Z,0.00
2018-12-19T06:17:53.761Z,0.00
2018-12-19T06:18:53.751Z,0.00
2018-12-19T06:19:53.741Z,0.00
2018-12-19T06:20:53.728Z,0.00
2018-12-19T06:21:53.718Z,0.00
2018-12-19T06:22:53.708Z,0.00
2018-12-19T06:23:53.695Z,0.00
2018-12-19T06:24:53.686Z,0.00
2018-12-19T06:25:53.674Z,0.00
2018-12-19T06:26:53.662Z,0.00
2018-12-19T06:27:53.651Z,0.00
2018-12-19T06:28:53.642Z,0.00
2018-12-19T06:29:53.630Z,0.00
2018-12-19T06:30:53.618Z,0.00
2018-12-19T06:31:53.605Z,0.00
2018-12-19T06:32:53.597Z,0.00
2018-12-19T06:33:53.585Z,0.00
2018-12-19T06:34:53.573Z,0.00
2018-12-19T06:35:53.565Z,0.00
2018-12-19T06:36:53.556Z,0.00
2018-12-19T06:37:53.540Z,0.00
2018-12-19T06:38:53.533Z,0.00
2018-12-19T06:39:53.516Z,0.00
2018-12-19T06:40:53.511Z,4.00
2018-12-19T06:41:53.498Z,0.00
2018-12-19T06:42:53.485Z,0.00
2018-12-19T06:43:53.475Z,4.00
2018-12-19T06:44:53.461Z,4.00
2018-12-19T06:45:53.455Z,4.00
2018-12-19T06:46:53.441Z,8.00
2018-12-19T06:47:53.434Z,8.00
2018-12-19T06:48:53.420Z,4.00
2018-12-19T06:49:53.408Z,8.00
2018-12-19T06:50:53.398Z,4.00
2018-12-19T06:51:53.386Z,8.00
2018-12-19T06:52:53.377Z,12.00
2018-12-19T06:53:53.364Z,12.00
2018-12-19T06:54:53.359Z,12.00
2018-12-19T06:55:53.343Z,16.00
2018-12-19T06:56:53.339Z,16.00
2018-12-19T06:57:53.330Z,20.00
2018-12-19T06:58:53.313Z,24.00
2018-12-19T06:59:53.299Z,28.00
2018-12-19T07:00:53.286Z,32.00
2018-12-19T07:01:53.276Z,36.00
2018-12-19T07:02:53.265Z,44.00
2018-12-19T07:03:53.254Z,44.00
2018-12-19T07:04:53.244Z,48.00
2018-12-19T07:05:53.232Z,48.00
2018-12-19T07:06:53.222Z,48.00
2018-12-19T07:07:53.212Z,56.00
2018-12-19T07:08:53.200Z,56.00
2018-12-19T07:09:53.188Z,64.00
2018-12-19T07:10:53.178Z,64.00
2018-12-19T07:11:53.167Z,76.00
2018-12-19T07:12:53.157Z,80.00
2018-12-19T07:13:53.144Z,88.00
2018-12-19T07:14:53.135Z,96.00
2018-12-19T07:15:53.122Z,100.00
2018-12-19T07:16:53.112Z,104.00
2018-12-19T07:17:53.101Z,112.00
2018-12-19T07:18:53.089Z,116.00
2018-12-19T07:19:53.081Z,124.00
2018-12-19T07:20:53.266Z,132.00
2018-12-19T07:21:53.057Z,148.00
2018-12-19T07:22:53.046Z,152.00
2018-12-19T07:23:53.037Z,164.00
2018-12-19T07:24:53.027Z,172.00
2018-12-19T07:25:53.013Z,180.00
2018-12-19T07:26:53.002Z,192.00
2018-12-19T07:27:52.992Z,200.00
2018-12-19T07:28:52.980Z,212.00
2018-12-19T07:29:52.968Z,220.00
2018-12-19T07:30:52.961Z,232.00
2018-12-19T07:31:52.944Z,244.00
2018-12-19T07:32:52.936Z,256.00
2018-12-19T07:33:52.926Z,268.00
2018-12-19T07:34:52.915Z,284.00
2018-12-19T07:35:52.905Z,292.00
2018-12-19T07:36:52.894Z,300.00
2018-12-19T07:37:52.879Z,312.00
2018-12-19T07:38:52.870Z,324.00
2018-12-19T07:39:52.864Z,336.00
2018-12-19T07:40:52.850Z,348.00
2018-12-19T07:41:52.839Z,364.00
2018-12-19T07:42:52.835Z,376.00
2018-12-19T07:43:52.822Z,396.00
2018-12-19T07:44:52.806Z,408.00
2018-12-19T07:45:52.795Z,424.00
2018-12-19T07:46:52.785Z,440.00
2018-12-19T07:47:52.776Z,456.00
2018-12-19T07:48:52.762Z,464.00
2018-12-19T07:49:52.763Z,476.00
2018-12-19T07:50:52.739Z,484.00
2018-12-19T07:51:52.729Z,500.00
2018-12-19T07:52:52.780Z,520.00
2018-12-19T07:53:52.706Z,548.00
2018-12-19T07:54:52.695Z,576.00
2018-12-19T07:55:52.686Z,604.00
2018-12-19T07:56:52.673Z,628.00
2018-12-19T07:57:52.663Z,648.00
2018-12-19T07:58:52.654Z,676.00
2018-12-19T07:59:52.640Z,696.00
2018-12-19T08:00:52.632Z,716.00
2018-12-19T08:01:52.621Z,736.00
2018-12-19T08:02:52.609Z,760.00
2018-12-19T08:03:52.599Z,780.00
2018-12-19T08:04:52.591Z,796.00
2018-12-19T08:05:52.576Z,824.00
2018-12-19T08:06:52.579Z,848.00
2018-12-19T08:07:52.556Z,872.00
2018-12-19T08:08:52.547Z,896.00
2018-12-19T08:09:52.532Z,924.00
2018-12-19T08:10:52.528Z,948.00
2018-12-19T08:11:52.512Z,968.00
2018-12-19T08:12:52.502Z,980.00
2018-12-19T08:13:52.490Z,992.00
2018-12-19T08:14:52.477Z,1000.00
2018-12-19T08:15:52.468Z,1004.00
2018-12-19T08:16:52.457Z,1008.00
2018-12-19T08:17:52.447Z,1016.00
2018-12-19T08:18:52.436Z,1020.00
2018-12-19T08:19:52.422Z,1036.00
2018-12-19T08:20:52.416Z,1044.00
2018-12-19T08:21:52.406Z,1060.00
2018-12-19T08:22:52.392Z,1080.00
2018-12-19T08:23:52.382Z,1092.00
2018-12-19T08:24:52.374Z,1104.00
2018-12-19T08:25:52.360Z,1116.00
2018-12-19T08:26:52.350Z,1112.00
2018-12-19T08:27:52.339Z,1104.00
2018-12-19T08:28:52.330Z,1104.00
2018-12-19T08:29:52.320Z,1096.00
2018-12-19T08:30:52.310Z,1096.00
2018-12-19T08:31:52.296Z,1100.00
2018-12-19T08:32:52.286Z,1108.00
2018-12-19T08:33:52.277Z,1116.00
2018-12-19T08:34:52.268Z,1124.00
2018-12-19T08:35:52.252Z,1132.00
2018-12-19T08:36:52.247Z,1136.00
2018-12-19T08:37:52.230Z,1152.00
2018-12-19T08:38:52.223Z,1160.00
2018-12-19T08:39:52.218Z,1176.00
2018-12-19T08:40:58.608Z,1184.00
2018-12-19T08:41:52.188Z,1184.00
2018-12-19T08:42:52.178Z,1180.00
2018-12-19T08:43:52.169Z,1168.00
2018-12-19T08:44:52.155Z,1136.00
2018-12-19T08:45:52.147Z,1124.00
2018-12-19T08:46:52.138Z,1124.00
2018-12-19T08:47:52.124Z,1128.00
2018-12-19T08:48:52.115Z,1128.00
2018-12-19T08:49:52.102Z,1120.00
2018-12-19T08:50:52.095Z,1112.00
2018-12-19T08:51:52.081Z,1124.00
2018-12-19T08:52:52.072Z,1144.00
2018-12-19T08:53:52.060Z,1156.00
2018-12-19T08:54:52.050Z,1180.00
2018-12-19T08:55:52.038Z,1192.00
2018-12-19T08:56:52.029Z,1216.00
2018-12-19T08:57:52.017Z,1248.00
2018-12-19T08:58:52.008Z,1284.00
2018-12-19T08:59:51.997Z,1308.00
2018-12-19T09:00:51.987Z,1332.00
2018-12-19T09:01:51.974Z,1340.00
2018-12-19T09:02:51.966Z,1344.00
2018-12-19T09:03:51.953Z,1348.00
2018-12-19T09:04:51.943Z,1348.00
2018-12-19T09:05:51.932Z,1340.00
2018-12-19T09:06:51.922Z,1332.00
2018-12-19T09:07:51.912Z,1312.00
2018-12-19T09:08:51.928Z,1284.00
2018-12-19T09:09:51.891Z,1256.00
2018-12-19T09:10:51.880Z,1228.00
2018-12-19T09:11:51.874Z,1196.00
2018-12-19T09:12:51.865Z,1168.00
2018-12-19T09:13:51.847Z,1144.00
2018-12-19T09:14:51.841Z,1132.00
2018-12-19T09:15:51.824Z,1124.00
2018-12-19T09:16:51.816Z,1120.00
2018-12-19T09:17:51.808Z,1112.00
2018-12-19T09:18:51.797Z,1108.00
2018-12-19T09:19:51.786Z,1116.00
2018-12-19T09:20:51.777Z,1136.00
2018-12-19T09:21:51.763Z,1160.00
2018-12-19T09:22:51.765Z,1188.00
2018-12-19T09:23:51.744Z,1224.00
2018-12-19T09:24:51.732Z,1260.00
2018-12-19T09:25:52.943Z,1292.00
2018-12-19T09:26:51.709Z,1320.00
2018-12-19T09:27:51.700Z,1344.00
2018-12-19T09:28:51.690Z,1360.00
2018-12-19T09:29:51.678Z,1364.00
2018-12-19T09:30:51.668Z,1364.00
2018-12-19T09:31:51.658Z,1360.00
2018-12-19T09:32:52.664Z,1356.00
2018-12-19T09:33:51.636Z,1372.00
2018-12-19T09:34:51.629Z,1392.00
2018-12-19T09:35:51.616Z,1404.00
2018-12-19T09:36:51.640Z,1396.00
2018-12-19T09:37:51.596Z,1380.00
2018-12-19T09:38:51.581Z,1364.00
2018-12-19T09:39:51.574Z,1360.00
2018-12-19T09:40:51.566Z,1364.00
2018-12-19T09:41:51.556Z,1376.00
2018-12-19T09:42:51.543Z,1396.00
2018-12-19T09:43:51.534Z,1412.00
2018-12-19T09:44:51.522Z,1428.00
2018-12-19T09:45:51.514Z,1444.00
2018-12-19T09:46:51.501Z,1464.00
2018-12-19T09:47:51.490Z,1484.00
2018-12-19T09:48:51.549Z,1500.00
2018-12-19T09:49:51.470Z,1512.00
2018-12-19T09:50:51.462Z,1520.00
2018-12-19T09:51:51.449Z,1520.00
2018-12-19T09:52:51.441Z,1520.00
2018-12-19T09:53:51.429Z,1528.00
2018-12-19T09:54:51.421Z,1544.00
2018-12-19T09:55:51.406Z,1560.00
2018-12-19T09:56:51.399Z,1584.00
2018-12-19T09:57:51.388Z,1604.00
2018-12-19T09:58:51.376Z,1648.00
2018-12-19T09:59:51.365Z,1692.00
2018-12-19T10:00:51.362Z,1716.00
2018-12-19T10:01:51.346Z,1724.00
2018-12-19T10:02:51.337Z,1720.00
2018-12-19T10:03:51.325Z,1716.00
2018-12-19T10:04:51.315Z,1728.00
2018-12-19T10:05:51.304Z,1752.00
2018-12-19T10:06:51.293Z,1776.00
2018-12-19T10:07:51.283Z,1792.00
2018-12-19T10:08:51.273Z,1820.00
2018-12-19T10:09:51.264Z,1844.00
2018-12-19T10:10:51.252Z,1868.00
2018-12-19T10:11:51.243Z,1884.00
2018-12-19T10:12:51.229Z,1896.00
2018-12-19T10:13:51.225Z,1916.00
2018-12-19T10:14:51.212Z,1932.00
2018-12-19T10:15:51.202Z,1968.00
2018-12-19T10:16:51.191Z,2020.00
2018-12-19T10:17:51.183Z,2052.00
2018-12-19T10:18:51.171Z,2072.00
2018-12-19T10:19:51.160Z,2072.00
2018-12-19T10:20:51.151Z,2080.00
2018-12-19T10:21:51.140Z,2104.00
2018-12-19T10:22:51.129Z,2144.00
2018-12-19T10:23:51.120Z,2156.00
2018-12-19T10:24:51.111Z,2164.00
2018-12-19T10:25:51.104Z,2160.00
2018-12-19T10:26:51.092Z,2168.00
2018-12-19T10:27:51.080Z,2168.00
2018-12-19T10:28:51.852Z,2152.00
2018-12-19T10:29:51.058Z,2124.00
2018-12-19T10:30:51.050Z,2084.00
2018-12-19T10:31:51.038Z,2052.00
2018-12-19T10:32:51.029Z,2040.00
2018-12-19T10:33:51.018Z,2036.00
2018-12-19T10:34:51.010Z,2044.00
2018-12-19T10:35:51.000Z,2080.00
2018-12-19T10:36:50.990Z,2120.00
2018-12-19T10:37:50.979Z,2152.00
2018-12-19T10:38:50.970Z,2152.00
2018-12-19T10:39:50.960Z,2144.00
2018-12-19T10:40:50.950Z,2136.00
2018-12-19T10:41:50.940Z,2124.00
2018-12-19T10:42:50.929Z,2116.00
2018-12-19T10:43:50.919Z,2096.00
2018-12-19T10:44:50.911Z,2060.00
2018-12-19T10:45:50.897Z,2012.00
2018-12-19T10:46:50.890Z,1960.00
2018-12-19T10:47:50.882Z,1940.00
2018-12-19T10:48:50.870Z,1920.00
2018-12-19T10:49:50.858Z,1912.00
2018-12-19T10:50:52.331Z,1944.00
2018-12-19T10:51:50.838Z,1988.00
2018-12-19T10:52:50.832Z,2036.00
2018-12-19T10:53:50.820Z,2056.00
2018-12-19T10:54:50.809Z,2068.00
2018-12-19T10:55:50.800Z,2076.00
2018-12-19T10:56:50.792Z,2100.00
2018-12-19T10:57:50.783Z,2144.00
2018-12-19T10:58:50.775Z,2204.00
2018-12-19T10:59:50.763Z,2276.00
2018-12-19T11:00:50.753Z,2348.00
2018-12-19T11:01:50.740Z,2388.00
2018-12-19T11:02:50.731Z,2424.00
2018-12-19T11:03:50.721Z,2448.00
2018-12-19T11:04:50.710Z,2452.00
2018-12-19T11:05:54.327Z,2404.00
2018-12-19T11:06:50.695Z,2304.00
2018-12-19T11:07:50.680Z,2196.00
2018-12-19T11:08:50.671Z,2152.00
2018-12-19T11:09:50.660Z,2172.00
2018-12-19T11:10:50.651Z,2228.00
2018-12-19T11:11:50.642Z,2280.00
2018-12-19T11:12:50.629Z,2336.00
2018-12-19T11:13:50.620Z,2392.00
2018-12-19T11:14:50.612Z,2452.00
2018-12-19T11:15:50.601Z,2488.00
2018-12-19T11:16:50.590Z,2504.00
2018-12-19T11:17:50.582Z,2508.00
2018-12-19T11:18:50.571Z,2512.00
2018-12-19T11:19:50.561Z,2572.00
2018-12-19T11:20:50.552Z,2652.00
2018-12-19T11:21:50.540Z,2740.00
2018-12-19T11:22:50.534Z,2832.00
2018-12-19T11:23:50.522Z,2864.00
2018-12-19T11:24:50.513Z,2852.00
2018-12-19T11:25:50.504Z,2788.00
2018-12-19T11:26:50.493Z,2668.00
2018-12-19T11:27:50.484Z,2592.00
2018-12-19T11:28:50.472Z,2548.00
2018-12-19T11:29:50.462Z,2508.00
2018-12-19T11:30:50.454Z,2460.00
2018-12-19T11:31:50.443Z,2408.00
2018-12-19T11:32:50.433Z,2364.00
2018-12-19T11:33:50.428Z,2272.00
2018-12-19T11:34:50.415Z,2136.00
2018-12-19T11:35:50.405Z,1992.00
2018-12-19T11:36:50.394Z,1900.00
2018-12-19T11:37:50.380Z,1836.00
2018-12-19T11:38:50.375Z,1820.00
2018-12-19T11:39:50.367Z,1824.00
2018-12-19T11:40:50.355Z,1820.00
2018-12-19T11:41:50.349Z,1784.00
2018-12-19T11:42:50.335Z,1704.00
2018-12-19T11:43:50.327Z,1628.00
2018-12-19T11:44:50.318Z,1584.00
2018-12-19T11:45:50.313Z,1512.00
2018-12-19T11:46:50.297Z,1420.00
2018-12-19T11:47:50.288Z,1336.00
2018-12-19T11:48:50.279Z,1264.00
2018-12-19T11:49:50.867Z,1276.00
2018-12-19T11:50:50.260Z,1304.00
2018-12-19T11:51:50.250Z,1308.00
2018-12-19T11:52:50.240Z,1264.00
2018-12-19T11:53:50.229Z,1184.00
2018-12-19T11:54:50.216Z,1132.00
2018-12-19T11:55:50.211Z,1140.00
2018-12-19T11:56:50.201Z,1164.00
2018-12-19T11:57:50.191Z,1176.00
2018-12-19T11:58:50.180Z,1216.00
2018-12-19T11:59:50.171Z,1312.00
2018-12-19T12:00:50.159Z,1388.00
2018-12-19T12:01:50.151Z,1408.00
2018-12-19T12:02:50.141Z,1368.00
2018-12-19T12:03:50.131Z,1440.00
2018-12-19T12:04:50.125Z,1512.00
2018-12-19T12:05:50.117Z,1680.00
2018-12-19T12:06:50.102Z,1756.00
2018-12-19T12:07:50.093Z,1720.00
2018-12-19T12:08:50.082Z,1688.00
2018-12-19T12:09:50.074Z,1664.00
2018-12-19T12:10:50.070Z,1712.00
2018-12-19T12:11:50.055Z,1788.00
2018-12-19T12:12:50.044Z,1840.00
2018-12-19T12:13:50.035Z,1904.00
2018-12-19T12:14:50.020Z,1872.00
2018-12-19T12:15:50.012Z,1788.00
2018-12-19T12:16:50.004Z,1720.00
2018-12-19T12:17:50.871Z,1668.00
2018-12-19T12:18:49.985Z,1620.00
2018-12-19T12:19:49.972Z,1552.00
2018-12-19T12:20:49.965Z,1512.00
2018-12-19T12:21:49.959Z,1544.00
2018-12-19T12:22:49.947Z,1620.00
2018-12-19T12:23:49.937Z,1652.00
2018-12-19T12:24:49.925Z,1692.00
2018-12-19T12:25:49.916Z,1720.00
2018-12-19T12:26:49.906Z,1760.00
2018-12-19T12:27:49.899Z,1804.00
2018-12-19T12:28:49.887Z,1836.00
2018-12-19T12:29:49.881Z,1868.00
2018-12-19T12:30:49.867Z,1848.00
2018-12-19T12:31:49.858Z,1796.00
2018-12-19T12:32:49.847Z,1732.00
2018-12-19T12:33:50.782Z,1672.00
2018-12-19T12:34:49.829Z,1624.00
2018-12-19T12:35:49.816Z,1640.00
2018-12-19T12:36:49.811Z,1656.00
2018-12-19T12:37:49.799Z,1664.00
2018-12-19T12:38:49.802Z,1636.00
2018-12-19T12:39:49.782Z,1604.00
2018-12-19T12:40:49.771Z,1616.00
2018-12-19T12:41:52.503Z,1632.00
2018-12-19T12:42:49.750Z,1632.00
2018-12-19T12:43:49.741Z,1624.00
2018-12-19T12:44:49.735Z,1544.00
2018-12-19T12:45:49.722Z,1448.00
2018-12-19T12:46:49.713Z,1392.00